Time;durP1;ratioP1;P1;durP2;ratioP2;P2;SDS_P1;SDS_P2;PMS_P1;PMS_P2;Temp;Humidity;BMP_temperature;BMP_pressure;BME280_temperature;BME280_humidity;BME280_pressure;Samples;Min_cycle;Max_cycle;Signal;HPM_P1;HPM_P2
2023/09/26 00:09:13;;;;;;;2.70;0.88;;;;;;;23.46;45.66;96701.00;6124514;23;20029;-27
2023/09/26 00:25:06;;;;;;;3.85;1.00;;;;;;;23.48;45.51;96699.22;6125835;23;20024;-29
2023/09/26 00:40:58;;;;;;;2.58;0.90;;;;;;;23.42;45.45;96706.03;6125832;23;20340;-28
2023/09/26 00:54:03;;;;;;;1.35;0.85;;;;;;;23.33;45.83;96686.91;6128115;23;20146;-26
2023/09/26 01:09:56;;;;;;;2.55;1.30;;;;;;;23.44;45.75;96681.38;6126248;23;20036;-27
2023/09/26 01:25:49;;;;;;;4.80;1.05;;;;;;;23.43;45.87;96690.91;6127231;23;20082;-27
2023/09/26 01:41:42;;;;;;;1.90;0.90;;;;;;;23.55;45.33;96682.13;6127117;23;20021;-27
2023/09/26 01:54:44;;;;;;;1.55;0.82;;;;;;;23.56;45.53;96678.09;6127165;23;20017;-27
2023/09/26 02:10:37;;;;;;;3.40;1.10;;;;;;;23.40;45.85;96647.66;6126030;23;20104;-28
2023/09/26 02:26:29;;;;;;;2.20;0.93;;;;;;;23.20;46.05;96668.06;6126563;23;20044;-27
2023/09/26 02:42:22;;;;;;;2.60;0.80;;;;;;;23.29;45.63;96659.50;6126786;23;20029;-26
2023/09/26 02:55:29;;;;;;;2.10;1.13;;;;;;;23.17;45.96;96658.00;6126235;23;20032;-27
2023/09/26 03:11:22;;;;;;;2.70;0.95;;;;;;;23.18;46.35;96659.50;6124975;23;20032;-27
2023/09/26 03:27:15;;;;;;;2.10;0.90;;;;;;;23.24;45.61;96644.41;6126805;23;20021;-26
2023/09/26 03:43:06;;;;;;;1.90;1.00;;;;;;;23.18;45.81;96631.84;6126149;23;20339;-26
2023/09/26 03:56:14;;;;;;;2.40;0.82;;;;;;;23.01;46.18;96636.63;6126124;23;20013;-27
2023/09/26 03:58:40;;;;;;;2.75;0.80;;;;;;;23.03;45.88;96626.56;6126102;23;20006;-26
2023/09/26 04:11:23;;;;;;;2.13;0.80;;;;;;;23.05;45.50;96635.13;6124757;23;20512;-27
2023/09/26 04:27:16;;;;;;;2.22;1.10;;;;;;;23.18;45.41;96618.75;6096359;23;20081;-27
2023/09/26 04:43:09;;;;;;;2.42;1.10;;;;;;;23.08;45.95;96589.88;6096582;23;20344;-26
2023/09/26 04:45:34;;;;;;;2.63;0.98;;;;;;;23.08;46.25;96580.81;6096647;23;20003;-27
2023/09/26 04:58:06;;;;;;;4.70;1.08;;;;;;;23.09;46.32;96560.19;6096178;23;20478;-27
2023/09/26 05:13:59;;;;;;;1.48;0.88;;;;;;;22.92;46.54;96577.56;6124502;23;20025;-27
2023/09/26 05:27:13;;;;;;;1.30;0.90;;;;;;;22.75;46.97;96574.00;6125378;23;20013;-27
2023/09/26 05:43:05;;;;;;;4.22;1.65;;;;;;;22.89;46.60;96567.50;6127302;23;20021;-26
2023/09/26 05:58:58;;;;;;;4.30;2.67;;;;;;;23.04;46.71;96578.28;6126813;23;20013;-26
2023/09/26 06:28:43;;;;;;;2.33;1.40;;;;;;;23.26;46.51;96614.22;6127006;23;20040;-26
2023/09/26 06:44:35;;;;;;;5.75;1.67;;;;;;;23.41;47.07;96627.00;6126679;23;20049;-28
2023/09/26 07:00:28;;;;;;;3.92;1.17;;;;;;;23.22;48.27;96615.75;6126667;23;20021;-27
2023/09/26 07:13:24;;;;;;;2.97;1.42;;;;;;;23.21;48.27;96623.28;6125754;23;20122;-27
2023/09/26 07:29:16;;;;;;;2.50;1.40;;;;;;;23.31;48.73;96640.38;6096839;23;20134;-27
2023/09/26 07:45:09;;;;;;;1.85;1.17;;;;;;;23.51;48.16;96634.56;6097062;23;20021;-27
2023/09/26 07:47:35;;;;;;;25.77;15.30;;;;;;;23.47;48.18;96636.81;6096851;23;20014;-26
2023/09/26 08:00:11;;;;;;;6.65;4.38;;;;;;;23.42;48.16;96636.81;6096482;23;20019;-28
2023/09/26 08:16:03;;;;;;;3.72;1.38;;;;;;;23.62;48.04;96628.22;6124875;23;20470;-27
2023/09/26 08:29:10;;;;;;;3.70;1.50;;;;;;;23.86;47.45;96620.09;6125748;23;20447;-28
2023/09/26 08:45:04;;;;;;;3.97;1.50;;;;;;;24.19;46.88;96627.50;6125626;23;20073;-27
2023/09/26 09:00:56;;;;;;;3.63;1.15;;;;;;;24.25;46.68;96638.56;6125172;23;20020;-28
2023/09/26 09:30:44;;;;;;;3.22;1.70;;;;;;;24.61;45.56;96633.78;6127054;23;20404;-27
2023/09/26 09:46:40;;;;;;;3.70;2.00;;;;;;;24.52;45.92;96623.78;6127217;23;20072;-25
2023/09/26 10:16:19;;;;;;;3.25;2.53;;;;;;;24.81;45.21;96621.56;6127967;23;20033;-27
2023/09/26 10:32:22;;;;;;;4.22;2.80;;;;;;;24.76;45.30;96603.69;6127017;23;20021;-28
2023/09/26 10:45:39;;;;;;;3.78;3.08;;;;;;;24.82;45.39;96600.88;6126533;23;20020;-27
2023/09/26 11:01:37;;;;;;;7.47;3.95;;;;;;;24.95;45.08;96596.25;6126677;23;20114;-27
2023/09/26 11:17:29;;;;;;;6.20;4.70;;;;;;;24.92;45.42;96538.22;6124938;23;20029;-26
2023/09/26 11:20:05;;;;;;;8.23;4.72;;;;;;;24.96;45.17;96547.06;6100370;23;20017;-26
2023/09/26 11:32:43;;;;;;;6.18;4.90;;;;;;;24.96;45.29;96553.34;6125997;23;20052;-27
2023/09/26 11:35:09;;;;;;;6.68;4.70;;;;;;;24.99;45.19;96559.88;6126606;23;20014;-28
2023/09/26 11:47:40;;;;;;;7.60;5.20;;;;;;;24.98;45.00;96542.47;6125913;23;20339;-27
2023/09/26 12:17:01;;;;;;;8.10;5.43;;;;;;;25.17;44.44;96511.25;6124735;23;20100;-26
2023/09/26 12:32:53;;;;;;;7.00;4.65;;;;;;;25.09;45.02;96522.19;6125753;23;20113;-27
2023/09/26 12:48:47;;;;;;;6.78;4.65;;;;;;;25.05;45.36;96516.19;6125468;23;20015;-27
2023/09/26 12:51:13;;;;;;;5.18;4.68;;;;;;;25.10;45.18;96509.81;6125844;23;20006;-26
2023/09/26 13:03:43;;;;;;;5.53;4.60;;;;;;;25.30;45.17;96511.34;6125738;23;20013;-26
2023/09/26 13:34:17;;;;;;;6.07;4.18;;;;;;;25.30;44.97;96481.56;6125687;23;20114;-26
2023/09/26 13:47:41;;;;;;;6.53;5.20;;;;;;;25.31;45.13;96474.75;6125522;23;20447;-26
2023/09/26 14:03:34;;;;;;;5.25;4.22;;;;;;;25.45;44.99;96472.06;6127150;23;20137;-26
2023/09/26 14:19:26;;;;;;;6.07;4.53;;;;;;;25.48;45.00;96479.31;6125614;23;20428;-27
2023/09/26 14:35:18;;;;;;;8.85;4.75;;;;;;;25.39;44.83;96475.66;6126895;23;20092;-26
2023/09/26 14:48:24;;;;;;;6.63;4.70;;;;;;;25.33;45.22;96474.97;6126613;23;20084;-26
2023/09/26 15:04:16;;;;;;;7.55;4.63;;;;;;;25.53;45.06;96470.19;6126329;23;20012;-26
2023/09/26 15:06:42;;;;;;;8.93;4.45;;;;;;;25.45;45.03;96469.28;6126925;23;20010;-27
2023/09/26 15:09:08;;;;;;;5.18;4.50;;;;;;;25.46;45.33;96479.13;6126674;23;20009;-27
2023/09/26 15:18:44;;;;;;;4.40;4.00;;;;;;;25.59;45.07;96479.19;6125647;23;20021;-28
2023/09/26 15:34:36;;;;;;;5.70;4.63;;;;;;;25.67;44.73;96482.91;6126041;23;20175;-28
2023/09/26 15:50:29;;;;;;;5.63;4.22;;;;;;;25.70;44.67;96487.41;6126073;23;20085;-27
2023/09/26 16:19:48;;;;;;;6.50;4.22;;;;;;;25.68;44.89;96487.94;6124898;23;20064;-26
2023/09/26 16:35:40;;;;;;;7.18;4.82;;;;;;;25.45;45.00;96486.69;6125544;23;20017;-28
2023/09/26 16:51:35;;;;;;;6.13;4.50;;;;;;;25.55;44.88;96493.38;6126001;23;20042;-27
2023/09/26 17:04:58;;;;;;;4.57;4.05;;;;;;;25.49;44.55;96505.81;6125485;23;20017;-28
2023/09/26 17:20:54;;;;;;;7.03;4.28;;;;;;;25.51;44.57;96500.50;6124381;23;20508;-27
2023/09/26 17:36:46;;;;;;;6.82;4.00;;;;;;;25.18;44.59;96519.06;6127309;23;20036;-27
2023/09/26 17:52:38;;;;;;;8.45;3.95;;;;;;;25.12;44.24;96521.13;6127107;23;20020;-27
2023/09/26 18:05:40;;;;;;;6.18;3.92;;;;;;;25.03;43.78;96546.47;6127258;23;20017;-27
2023/09/26 18:08:07;;;;;;;7.03;4.18;;;;;;;25.14;43.75;96543.56;6126862;23;20105;-27
2023/09/26 18:10:32;;;;;;;5.38;3.63;;;;;;;25.18;43.48;96546.06;6101217;23;20034;-29
2023/09/26 18:23:10;;;;;;;6.00;3.58;;;;;;;25.23;43.27;96548.75;6127411;23;20104;-27
2023/09/26 18:36:04;;;;;;;4.95;3.30;;;;;;;25.07;43.38;96549.72;6126458;23;20308;-27
2023/09/26 18:51:56;;;;;;;5.40;3.55;;;;;;;24.99;43.69;96551.53;6126381;23;20037;-27
2023/09/26 19:07:48;;;;;;;8.02;3.75;;;;;;;25.02;43.82;96569.94;6126262;23;20064;-26
2023/09/26 19:37:57;;;;;;;6.78;3.35;;;;;;;24.89;44.31;96572.56;6126378;23;20052;-27
2023/09/26 19:53:50;;;;;;;6.55;3.70;;;;;;;24.71;44.40;96598.94;6125822;23;20125;-27
2023/09/26 20:06:59;;;;;;;9.68;3.80;;;;;;;24.87;44.41;96600.06;6126383;23;20052;-27
2023/09/26 20:09:25;;;;;;;6.63;3.85;;;;;;;24.80;44.36;96600.63;6125963;23;20053;-26
2023/09/26 20:11:50;;;;;;;6.38;3.40;;;;;;;24.98;43.95;96599.97;6126290;23;20006;-27
2023/09/26 20:39:08;;;;;;;9.40;3.97;;;;;;;24.65;43.85;96612.09;6125722;23;20064;-28
2023/09/26 20:52:31;;;;;;;7.18;3.65;;;;;;;24.64;43.31;96608.56;6126026;23;20016;-27
2023/09/26 21:08:23;;;;;;;6.00;3.50;;;;;;;24.63;43.14;96603.53;6127845;23;20020;-27
2023/09/26 21:24:15;;;;;;;7.22;3.92;;;;;;;24.61;43.42;96619.94;6125984;23;20523;-28
2023/09/26 21:53:36;;;;;;;5.90;3.58;;;;;;;24.31;44.23;96601.25;6127531;23;20078;-27
2023/09/26 21:56:09;;;;;;;9.57;4.03;;;;;;;24.67;43.55;96598.47;6127085;23;20002;-27
2023/09/26 22:08:39;;;;;;;7.00;3.35;;;;;;;24.40;44.04;96594.63;6127222;23;20017;-28
2023/09/26 22:24:32;;;;;;;6.93;3.80;;;;;;;24.56;43.58;96607.63;6125322;23;20463;-27
2023/09/26 22:40:25;;;;;;;7.30;3.50;;;;;;;24.54;43.65;96601.84;6127007;23;20073;-27
2023/09/26 22:56:19;;;;;;;8.82;3.88;;;;;;;24.46;44.00;96600.91;6126817;23;20133;-27
2023/09/26 22:58:45;;;;;;;10.00;3.72;;;;;;;24.28;44.27;96605.03;6127051;23;20037;-26
2023/09/26 23:24:42;;;;;;;8.70;3.90;;;;;;;24.50;43.67;96590.25;6124867;23;20032;-27
2023/09/26 23:40:36;;;;;;;6.00;3.40;;;;;;;24.37;43.21;96592.13;6125973;23;20056;-27
2023/09/26 23:56:28;;;;;;;5.60;3.10;;;;;;;24.21;43.03;96593.72;6126109;23;20017;-29
